sensor_id;sensor_type;location;lat;lon;timestamp;P1;durP1;ratioP1;P2;durP2;ratioP2
15889;SDS011;8043;49.388;12.128;2023-02-23T00:05:00;4.97;;;3.27;;
15889;SDS011;8043;49.388;12.128;2023-02-23T00:10:02;6.77;;;4.27;;
15889;SDS011;8043;49.388;12.128;2023-02-23T00:15:05;5.45;;;3.35;;
15889;SDS011;8043;49.388;12.128;2023-02-23T00:20:09;8.37;;;3.90;;
15889;SDS011;8043;49.388;12.128;2023-02-23T00:25:12;5.57;;;3.67;;
15889;SDS011;8043;49.388;12.128;2023-02-23T00:30:15;6.37;;;3.77;;
15889;SDS011;8043;49.388;12.128;2023-02-23T00:35:18;7.80;;;3.57;;
15889;SDS011;8043;49.388;12.128;2023-02-23T00:40:20;5.53;;;3.27;;
15889;SDS011;8043;49.388;12.128;2023-02-23T00:45:24;5.83;;;3.80;;
15889;SDS011;8043;49.388;12.128;2023-02-23T00:50:26;5.37;;;3.47;;
15889;SDS011;8043;49.388;12.128;2023-02-23T00:55:29;7.63;;;3.87;;
15889;SDS011;8043;49.388;12.128;2023-02-23T01:00:31;3.73;;;3.00;;
15889;SDS011;8043;49.388;12.128;2023-02-23T01:05:33;3.77;;;2.73;;
15889;SDS011;8043;49.388;12.128;2023-02-23T01:10:39;6.87;;;3.20;;
15889;SDS011;8043;49.388;12.128;2023-02-23T01:15:43;2.83;;;2.15;;
15889;SDS011;8043;49.388;12.128;2023-02-23T01:20:47;4.23;;;2.53;;
15889;SDS011;8043;49.388;12.128;2023-02-23T01:25:50;6.80;;;3.30;;
15889;SDS011;8043;49.388;12.128;2023-02-23T01:30:52;5.33;;;2.87;;
15889;SDS011;8043;49.388;12.128;2023-02-23T01:35:58;4.40;;;2.87;;
15889;SDS011;8043;49.388;12.128;2023-02-23T01:41:00;5.67;;;3.23;;
15889;SDS011;8043;49.388;12.128;2023-02-23T01:46:02;5.53;;;2.80;;
15889;SDS011;8043;49.388;12.128;2023-02-23T01:51:06;7.10;;;4.00;;
15889;SDS011;8043;49.388;12.128;2023-02-23T01:56:11;6.63;;;3.57;;
15889;SDS011;8043;49.388;12.128;2023-02-23T02:01:18;5.50;;;3.53;;
15889;SDS011;8043;49.388;12.128;2023-02-23T02:06:21;6.20;;;3.67;;
15889;SDS011;8043;49.388;12.128;2023-02-23T02:11:27;5.10;;;3.20;;
15889;SDS011;8043;49.388;12.128;2023-02-23T02:16:39;6.60;;;2.93;;
15889;SDS011;8043;49.388;12.128;2023-02-23T02:21:50;6.27;;;3.37;;
15889;SDS011;8043;49.388;12.128;2023-02-23T02:27:10;4.43;;;3.13;;
15889;SDS011;8043;49.388;12.128;2023-02-23T02:32:37;6.50;;;3.40;;
15889;SDS011;8043;49.388;12.128;2023-02-23T02:38:03;3.83;;;2.60;;
15889;SDS011;8043;49.388;12.128;2023-02-23T02:43:14;5.13;;;2.80;;
15889;SDS011;8043;49.388;12.128;2023-02-23T02:48:19;4.50;;;2.97;;
15889;SDS011;8043;49.388;12.128;2023-02-23T02:53:35;4.40;;;2.70;;
15889;SDS011;8043;49.388;12.128;2023-02-23T02:58:44;6.53;;;3.50;;
15889;SDS011;8043;49.388;12.128;2023-02-23T03:03:48;5.90;;;3.83;;
15889;SDS011;8043;49.388;12.128;2023-02-23T03:14:56;4.70;;;2.50;;
15889;SDS011;8043;49.388;12.128;2023-02-23T03:20:33;6.90;;;2.93;;
15889;SDS011;8043;49.388;12.128;2023-02-23T03:31:36;4.70;;;2.73;;
15889;SDS011;8043;49.388;12.128;2023-02-23T03:37:17;9.13;;;2.97;;
15889;SDS011;8043;49.388;12.128;2023-02-23T03:42:34;7.13;;;4.50;;
15889;SDS011;8043;49.388;12.128;2023-02-23T03:47:54;5.67;;;3.33;;
15889;SDS011;8043;49.388;12.128;2023-02-23T03:53:16;4.27;;;3.20;;
15889;SDS011;8043;49.388;12.128;2023-02-23T03:58:41;8.13;;;4.03;;
15889;SDS011;8043;49.388;12.128;2023-02-23T04:04:02;5.37;;;3.30;;
15889;SDS011;8043;49.388;12.128;2023-02-23T04:09:23;7.15;;;3.80;;
15889;SDS011;8043;49.388;12.128;2023-02-23T04:14:59;4.10;;;2.93;;
15889;SDS011;8043;49.388;12.128;2023-02-23T04:19:56;7.43;;;3.80;;
15889;SDS011;8043;49.388;12.128;2023-02-23T04:24:58;6.07;;;3.17;;
15889;SDS011;8043;49.388;12.128;2023-02-23T04:30:01;7.83;;;3.73;;
15889;SDS011;8043;49.388;12.128;2023-02-23T04:35:03;6.23;;;3.43;;
15889;SDS011;8043;49.388;12.128;2023-02-23T04:40:06;8.13;;;4.27;;
15889;SDS011;8043;49.388;12.128;2023-02-23T04:45:09;5.37;;;3.30;;
15889;SDS011;8043;49.388;12.128;2023-02-23T04:50:11;4.83;;;3.13;;
15889;SDS011;8043;49.388;12.128;2023-02-23T04:55:15;6.93;;;4.23;;
15889;SDS011;8043;49.388;12.128;2023-02-23T05:00:19;8.37;;;3.60;;
15889;SDS011;8043;49.388;12.128;2023-02-23T05:05:21;5.53;;;3.00;;
15889;SDS011;8043;49.388;12.128;2023-02-23T05:10:23;5.87;;;3.10;;
15889;SDS011;8043;49.388;12.128;2023-02-23T05:15:26;5.30;;;3.37;;
15889;SDS011;8043;49.388;12.128;2023-02-23T05:20:28;6.60;;;4.00;;
15889;SDS011;8043;49.388;12.128;2023-02-23T05:25:30;4.73;;;2.93;;
15889;SDS011;8043;49.388;12.128;2023-02-23T05:30:32;5.40;;;3.20;;
15889;SDS011;8043;49.388;12.128;2023-02-23T05:35:38;6.57;;;3.73;;
15889;SDS011;8043;49.388;12.128;2023-02-23T05:40:40;7.17;;;3.40;;
15889;SDS011;8043;49.388;12.128;2023-02-23T05:45:42;7.83;;;4.23;;
15889;SDS011;8043;49.388;12.128;2023-02-23T05:50:45;8.43;;;4.97;;
15889;SDS011;8043;49.388;12.128;2023-02-23T05:55:47;7.43;;;4.20;;
15889;SDS011;8043;49.388;12.128;2023-02-23T06:00:49;8.17;;;3.60;;
15889;SDS011;8043;49.388;12.128;2023-02-23T06:05:52;9.57;;;4.67;;
15889;SDS011;8043;49.388;12.128;2023-02-23T06:10:56;7.90;;;3.77;;
15889;SDS011;8043;49.388;12.128;2023-02-23T06:15:58;11.30;;;4.53;;
15889;SDS011;8043;49.388;12.128;2023-02-23T06:21:01;6.93;;;3.67;;
15889;SDS011;8043;49.388;12.128;2023-02-23T06:26:04;6.20;;;3.10;;
15889;SDS011;8043;49.388;12.128;2023-02-23T06:31:07;6.80;;;3.90;;
15889;SDS011;8043;49.388;12.128;2023-02-23T06:36:09;6.77;;;4.17;;
15889;SDS011;8043;49.388;12.128;2023-02-23T06:41:12;6.70;;;4.73;;
15889;SDS011;8043;49.388;12.128;2023-02-23T06:46:14;9.67;;;5.63;;
15889;SDS011;8043;49.388;12.128;2023-02-23T06:51:16;8.15;;;5.10;;
15889;SDS011;8043;49.388;12.128;2023-02-23T06:56:18;11.07;;;6.47;;
15889;SDS011;8043;49.388;12.128;2023-02-23T07:01:20;13.00;;;5.73;;
15889;SDS011;8043;49.388;12.128;2023-02-23T07:06:22;18.00;;;7.33;;
15889;SDS011;8043;49.388;12.128;2023-02-23T07:11:25;12.60;;;4.90;;
15889;SDS011;8043;49.388;12.128;2023-02-23T07:16:27;7.13;;;3.70;;
15889;SDS011;8043;49.388;12.128;2023-02-23T07:21:30;4.53;;;2.93;;
15889;SDS011;8043;49.388;12.128;2023-02-23T07:26:32;9.80;;;5.23;;
15889;SDS011;8043;49.388;12.128;2023-02-23T07:31:35;9.40;;;5.47;;
15889;SDS011;8043;49.388;12.128;2023-02-23T07:36:38;11.55;;;6.05;;
15889;SDS011;8043;49.388;12.128;2023-02-23T07:41:40;17.57;;;6.50;;
15889;SDS011;8043;49.388;12.128;2023-02-23T07:46:42;9.33;;;5.13;;
15889;SDS011;8043;49.388;12.128;2023-02-23T07:51:45;7.87;;;4.73;;
15889;SDS011;8043;49.388;12.128;2023-02-23T07:56:48;9.60;;;4.07;;
15889;SDS011;8043;49.388;12.128;2023-02-23T08:01:50;9.73;;;4.87;;
15889;SDS011;8043;49.388;12.128;2023-02-23T08:06:52;13.07;;;5.27;;
15889;SDS011;8043;49.388;12.128;2023-02-23T08:11:54;14.23;;;6.70;;
15889;SDS011;8043;49.388;12.128;2023-02-23T08:16:57;13.67;;;6.97;;
15889;SDS011;8043;49.388;12.128;2023-02-23T08:22:01;14.30;;;7.60;;
15889;SDS011;8043;49.388;12.128;2023-02-23T08:27:03;15.10;;;6.77;;
15889;SDS011;8043;49.388;12.128;2023-02-23T08:32:06;12.37;;;7.20;;
15889;SDS011;8043;49.388;12.128;2023-02-23T08:37:08;11.60;;;6.00;;
15889;SDS011;8043;49.388;12.128;2023-02-23T08:42:10;10.57;;;5.63;;
15889;SDS011;8043;49.388;12.128;2023-02-23T08:47:14;8.53;;;5.30;;
15889;SDS011;8043;49.388;12.128;2023-02-23T08:52:19;13.27;;;6.70;;
15889;SDS011;8043;49.388;12.128;2023-02-23T08:57:21;9.27;;;5.40;;
15889;SDS011;8043;49.388;12.128;2023-02-23T09:02:23;12.70;;;6.87;;
15889;SDS011;8043;49.388;12.128;2023-02-23T09:07:27;11.67;;;6.37;;
15889;SDS011;8043;49.388;12.128;2023-02-23T09:12:29;14.70;;;7.30;;
15889;SDS011;8043;49.388;12.128;2023-02-23T09:17:31;15.67;;;7.50;;
15889;SDS011;8043;49.388;12.128;2023-02-23T09:22:33;12.30;;;7.13;;
15889;SDS011;8043;49.388;12.128;2023-02-23T09:27:35;11.73;;;6.97;;
15889;SDS011;8043;49.388;12.128;2023-02-23T09:32:37;11.07;;;6.63;;
15889;SDS011;8043;49.388;12.128;2023-02-23T09:37:40;12.60;;;6.57;;
15889;SDS011;8043;49.388;12.128;2023-02-23T09:42:44;13.50;;;6.83;;
15889;SDS011;8043;49.388;12.128;2023-02-23T09:48:07;11.73;;;7.10;;
15889;SDS011;8043;49.388;12.128;2023-02-23T09:58:27;14.60;;;8.07;;
15889;SDS011;8043;49.388;12.128;2023-02-23T10:03:35;13.83;;;6.90;;
15889;SDS011;8043;49.388;12.128;2023-02-23T10:08:44;14.47;;;8.20;;
15889;SDS011;8043;49.388;12.128;2023-02-23T10:14:00;13.97;;;8.50;;
15889;SDS011;8043;49.388;12.128;2023-02-23T10:19:09;17.10;;;9.10;;
15889;SDS011;8043;49.388;12.128;2023-02-23T10:24:18;14.37;;;8.10;;
15889;SDS011;8043;49.388;12.128;2023-02-23T10:34:32;18.10;;;9.87;;
15889;SDS011;8043;49.388;12.128;2023-02-23T10:39:36;20.70;;;10.63;;
15889;SDS011;8043;49.388;12.128;2023-02-23T10:44:38;19.20;;;10.40;;
15889;SDS011;8043;49.388;12.128;2023-02-23T10:49:44;19.90;;;9.90;;
15889;SDS011;8043;49.388;12.128;2023-02-23T10:54:48;22.47;;;10.87;;
15889;SDS011;8043;49.388;12.128;2023-02-23T11:00:03;22.23;;;10.93;;
15889;SDS011;8043;49.388;12.128;2023-02-23T11:04:59;18.40;;;9.67;;
15889;SDS011;8043;49.388;12.128;2023-02-23T11:10:22;19.43;;;9.90;;
15889;SDS011;8043;49.388;12.128;2023-02-23T11:15:26;19.80;;;10.57;;
15889;SDS011;8043;49.388;12.128;2023-02-23T11:20:39;22.77;;;11.47;;
15889;SDS011;8043;49.388;12.128;2023-02-23T11:25:43;24.27;;;12.40;;
15889;SDS011;8043;49.388;12.128;2023-02-23T11:30:45;25.23;;;12.23;;
15889;SDS011;8043;49.388;12.128;2023-02-23T11:35:48;29.63;;;13.90;;
15889;SDS011;8043;49.388;12.128;2023-02-23T11:41:00;24.17;;;13.17;;
15889;SDS011;8043;49.388;12.128;2023-02-23T11:46:05;27.00;;;12.50;;
15889;SDS011;8043;49.388;12.128;2023-02-23T11:51:08;26.40;;;12.27;;
15889;SDS011;8043;49.388;12.128;2023-02-23T11:56:12;26.17;;;11.93;;
15889;SDS011;8043;49.388;12.128;2023-02-23T12:01:19;27.57;;;12.77;;
15889;SDS011;8043;49.388;12.128;2023-02-23T12:11:39;25.10;;;12.83;;
15889;SDS011;8043;49.388;12.128;2023-02-23T12:16:45;31.20;;;13.50;;
15889;SDS011;8043;49.388;12.128;2023-02-23T12:27:14;26.27;;;13.13;;
15889;SDS011;8043;49.388;12.128;2023-02-23T12:42:56;25.23;;;11.53;;
15889;SDS011;8043;49.388;12.128;2023-02-23T12:48:11;28.90;;;12.75;;
15889;SDS011;8043;49.388;12.128;2023-02-23T12:53:30;33.03;;;12.90;;
15889;SDS011;8043;49.388;12.128;2023-02-23T13:03:44;25.90;;;12.07;;
15889;SDS011;8043;49.388;12.128;2023-02-23T13:14:26;24.50;;;11.33;;
15889;SDS011;8043;49.388;12.128;2023-02-23T13:24:50;24.37;;;11.83;;
15889;SDS011;8043;49.388;12.128;2023-02-23T13:29:55;21.63;;;11.30;;
15889;SDS011;8043;49.388;12.128;2023-02-23T13:34:59;25.00;;;12.00;;
15889;SDS011;8043;49.388;12.128;2023-02-23T13:45:22;27.40;;;12.83;;
15889;SDS011;8043;49.388;12.128;2023-02-23T13:50:55;28.83;;;12.17;;
15889;SDS011;8043;49.388;12.128;2023-02-23T13:55:59;25.70;;;13.07;;
15889;SDS011;8043;49.388;12.128;2023-02-23T14:01:05;28.67;;;12.40;;
15889;SDS011;8043;49.388;12.128;2023-02-23T14:06:13;23.10;;;11.87;;
15889;SDS011;8043;49.388;12.128;2023-02-23T14:17:07;25.17;;;11.97;;
15889;SDS011;8043;49.388;12.128;2023-02-23T14:22:12;29.93;;;13.10;;
15889;SDS011;8043;49.388;12.128;2023-02-23T14:27:23;25.80;;;10.50;;
15889;SDS011;8043;49.388;12.128;2023-02-23T14:32:44;21.60;;;10.40;;
15889;SDS011;8043;49.388;12.128;2023-02-23T14:37:42;22.90;;;10.83;;
15889;SDS011;8043;49.388;12.128;2023-02-23T14:42:51;21.27;;;10.70;;
15889;SDS011;8043;49.388;12.128;2023-02-23T14:48:10;23.63;;;9.97;;
15889;SDS011;8043;49.388;12.128;2023-02-23T14:53:12;23.37;;;9.83;;
15889;SDS011;8043;49.388;12.128;2023-02-23T14:58:28;21.30;;;8.97;;
15889;SDS011;8043;49.388;12.128;2023-02-23T15:03:32;13.00;;;5.97;;
15889;SDS011;8043;49.388;12.128;2023-02-23T15:08:36;17.43;;;6.67;;
15889;SDS011;8043;49.388;12.128;2023-02-23T15:13:39;15.13;;;6.90;;
15889;SDS011;8043;49.388;12.128;2023-02-23T15:24:32;17.17;;;6.77;;
15889;SDS011;8043;49.388;12.128;2023-02-23T15:29:36;18.60;;;8.43;;
15889;SDS011;8043;49.388;12.128;2023-02-23T15:34:38;15.93;;;6.80;;
15889;SDS011;8043;49.388;12.128;2023-02-23T15:39:47;15.83;;;6.70;;
15889;SDS011;8043;49.388;12.128;2023-02-23T15:44:57;15.03;;;7.73;;
15889;SDS011;8043;49.388;12.128;2023-02-23T15:50:44;17.07;;;7.93;;
15889;SDS011;8043;49.388;12.128;2023-02-23T15:55:19;16.77;;;8.87;;
15889;SDS011;8043;49.388;12.128;2023-02-23T16:00:29;15.03;;;8.03;;
15889;SDS011;8043;49.388;12.128;2023-02-23T16:05:36;16.20;;;9.40;;
15889;SDS011;8043;49.388;12.128;2023-02-23T16:10:44;18.20;;;7.93;;
15889;SDS011;8043;49.388;12.128;2023-02-23T16:15:48;20.57;;;8.20;;
15889;SDS011;8043;49.388;12.128;2023-02-23T16:20:52;15.10;;;7.97;;
15889;SDS011;8043;49.388;12.128;2023-02-23T16:25:58;13.13;;;6.90;;
15889;SDS011;8043;49.388;12.128;2023-02-23T16:31:06;15.03;;;7.40;;
15889;SDS011;8043;49.388;12.128;2023-02-23T16:41:20;18.57;;;8.03;;
15889;SDS011;8043;49.388;12.128;2023-02-23T16:46:23;18.57;;;8.03;;
15889;SDS011;8043;49.388;12.128;2023-02-23T16:51:37;18.13;;;8.17;;
15889;SDS011;8043;49.388;12.128;2023-02-23T16:56:39;21.80;;;7.23;;
15889;SDS011;8043;49.388;12.128;2023-02-23T17:01:42;15.20;;;7.43;;
15889;SDS011;8043;49.388;12.128;2023-02-23T17:06:49;14.47;;;8.57;;
15889;SDS011;8043;49.388;12.128;2023-02-23T17:11:52;18.00;;;9.20;;
15889;SDS011;8043;49.388;12.128;2023-02-23T17:16:56;17.57;;;7.10;;
15889;SDS011;8043;49.388;12.128;2023-02-23T17:21:59;15.00;;;7.13;;
15889;SDS011;8043;49.388;12.128;2023-02-23T17:27:01;21.07;;;10.80;;
15889;SDS011;8043;49.388;12.128;2023-02-23T17:32:04;13.03;;;7.17;;
15889;SDS011;8043;49.388;12.128;2023-02-23T17:37:06;18.10;;;7.33;;
15889;SDS011;8043;49.388;12.128;2023-02-23T17:42:08;21.40;;;9.77;;
15889;SDS011;8043;49.388;12.128;2023-02-23T17:47:10;17.70;;;8.87;;
15889;SDS011;8043;49.388;12.128;2023-02-23T17:52:13;13.87;;;7.63;;
15889;SDS011;8043;49.388;12.128;2023-02-23T17:57:15;15.93;;;7.20;;
15889;SDS011;8043;49.388;12.128;2023-02-23T18:02:19;15.60;;;8.13;;
15889;SDS011;8043;49.388;12.128;2023-02-23T18:07:21;20.03;;;8.80;;
15889;SDS011;8043;49.388;12.128;2023-02-23T18:12:23;21.47;;;10.60;;
15889;SDS011;8043;49.388;12.128;2023-02-23T18:17:26;20.17;;;10.40;;
15889;SDS011;8043;49.388;12.128;2023-02-23T18:22:28;22.23;;;11.00;;
15889;SDS011;8043;49.388;12.128;2023-02-23T18:27:30;22.57;;;11.20;;
15889;SDS011;8043;49.388;12.128;2023-02-23T18:32:32;20.03;;;9.63;;
15889;SDS011;8043;49.388;12.128;2023-02-23T18:37:35;17.53;;;8.10;;
15889;SDS011;8043;49.388;12.128;2023-02-23T18:42:37;18.50;;;7.43;;
15889;SDS011;8043;49.388;12.128;2023-02-23T18:47:39;15.83;;;7.93;;
15889;SDS011;8043;49.388;12.128;2023-02-23T18:52:42;16.23;;;8.40;;
15889;SDS011;8043;49.388;12.128;2023-02-23T18:57:45;20.40;;;9.00;;
15889;SDS011;8043;49.388;12.128;2023-02-23T19:02:48;15.47;;;7.70;;
15889;SDS011;8043;49.388;12.128;2023-02-23T19:07:50;17.80;;;7.27;;
15889;SDS011;8043;49.388;12.128;2023-02-23T19:12:54;16.73;;;7.67;;
15889;SDS011;8043;49.388;12.128;2023-02-23T19:17:56;15.17;;;8.20;;
15889;SDS011;8043;49.388;12.128;2023-02-23T19:22:58;17.60;;;8.60;;
15889;SDS011;8043;49.388;12.128;2023-02-23T19:28:02;14.43;;;7.43;;
15889;SDS011;8043;49.388;12.128;2023-02-23T19:33:04;14.17;;;7.43;;
15889;SDS011;8043;49.388;12.128;2023-02-23T19:38:07;17.63;;;8.10;;
15889;SDS011;8043;49.388;12.128;2023-02-23T19:43:10;19.37;;;7.43;;
15889;SDS011;8043;49.388;12.128;2023-02-23T19:48:13;17.57;;;7.17;;
15889;SDS011;8043;49.388;12.128;2023-02-23T19:53:17;15.93;;;7.57;;
15889;SDS011;8043;49.388;12.128;2023-02-23T19:58:19;16.57;;;7.67;;
15889;SDS011;8043;49.388;12.128;2023-02-23T20:03:23;13.50;;;6.30;;
15889;SDS011;8043;49.388;12.128;2023-02-23T20:08:27;21.10;;;8.50;;
15889;SDS011;8043;49.388;12.128;2023-02-23T20:13:29;16.20;;;8.27;;
15889;SDS011;8043;49.388;12.128;2023-02-23T20:18:31;16.62;;;7.87;;
15889;SDS011;8043;49.388;12.128;2023-02-23T20:23:35;16.93;;;8.37;;
15889;SDS011;8043;49.388;12.128;2023-02-23T20:28:37;12.73;;;7.40;;
15889;SDS011;8043;49.388;12.128;2023-02-23T20:33:40;19.20;;;7.83;;
15889;SDS011;8043;49.388;12.128;2023-02-23T20:38:43;14.40;;;7.80;;
15889;SDS011;8043;49.388;12.128;2023-02-23T20:43:45;18.07;;;8.17;;
15889;SDS011;8043;49.388;12.128;2023-02-23T20:48:47;13.13;;;6.20;;
15889;SDS011;8043;49.388;12.128;2023-02-23T20:53:49;16.27;;;6.57;;
15889;SDS011;8043;49.388;12.128;2023-02-23T20:58:52;15.33;;;6.87;;
15889;SDS011;8043;49.388;12.128;2023-02-23T21:03:54;21.03;;;10.07;;
15889;SDS011;8043;49.388;12.128;2023-02-23T21:08:58;16.20;;;7.90;;
15889;SDS011;8043;49.388;12.128;2023-02-23T21:14:05;15.37;;;7.80;;
15889;SDS011;8043;49.388;12.128;2023-02-23T21:19:08;19.10;;;9.50;;
15889;SDS011;8043;49.388;12.128;2023-02-23T21:24:13;17.87;;;7.70;;
15889;SDS011;8043;49.388;12.128;2023-02-23T21:29:16;16.77;;;8.10;;
15889;SDS011;8043;49.388;12.128;2023-02-23T21:34:20;18.63;;;8.30;;
15889;SDS011;8043;49.388;12.128;2023-02-23T21:39:22;20.40;;;9.73;;
15889;SDS011;8043;49.388;12.128;2023-02-23T21:44:26;23.93;;;9.60;;
15889;SDS011;8043;49.388;12.128;2023-02-23T21:49:29;21.47;;;7.47;;
15889;SDS011;8043;49.388;12.128;2023-02-23T21:54:31;14.90;;;6.97;;
15889;SDS011;8043;49.388;12.128;2023-02-23T21:59:35;12.70;;;5.57;;
15889;SDS011;8043;49.388;12.128;2023-02-23T22:04:37;13.57;;;6.10;;
15889;SDS011;8043;49.388;12.128;2023-02-23T22:09:39;10.80;;;5.73;;
15889;SDS011;8043;49.388;12.128;2023-02-23T22:14:42;12.57;;;6.77;;
15889;SDS011;8043;49.388;12.128;2023-02-23T22:19:44;14.17;;;6.60;;
15889;SDS011;8043;49.388;12.128;2023-02-23T22:24:47;11.27;;;5.83;;
15889;SDS011;8043;49.388;12.128;2023-02-23T22:29:49;13.40;;;7.07;;
15889;SDS011;8043;49.388;12.128;2023-02-23T22:34:51;14.80;;;6.35;;
15889;SDS011;8043;49.388;12.128;2023-02-23T22:39:55;12.53;;;6.27;;
15889;SDS011;8043;49.388;12.128;2023-02-23T22:44:59;13.37;;;6.80;;
15889;SDS011;8043;49.388;12.128;2023-02-23T22:50:01;12.67;;;7.30;;
15889;SDS011;8043;49.388;12.128;2023-02-23T22:55:05;15.93;;;7.73;;
15889;SDS011;8043;49.388;12.128;2023-02-23T23:00:08;17.17;;;6.90;;
15889;SDS011;8043;49.388;12.128;2023-02-23T23:05:11;14.07;;;6.63;;
15889;SDS011;8043;49.388;12.128;2023-02-23T23:10:14;15.37;;;7.53;;
15889;SDS011;8043;49.388;12.128;2023-02-23T23:15:17;13.60;;;6.30;;
15889;SDS011;8043;49.388;12.128;2023-02-23T23:20:20;15.33;;;6.67;;
15889;SDS011;8043;49.388;12.128;2023-02-23T23:25:24;16.00;;;6.83;;
15889;SDS011;8043;49.388;12.128;2023-02-23T23:30:28;13.38;;;6.45;;
15889;SDS011;8043;49.388;12.128;2023-02-23T23:35:31;13.00;;;6.27;;
15889;SDS011;8043;49.388;12.128;2023-02-23T23:40:34;19.00;;;8.03;;
15889;SDS011;8043;49.388;12.128;2023-02-23T23:45:37;13.40;;;6.47;;
15889;SDS011;8043;49.388;12.128;2023-02-23T23:50:42;12.57;;;7.17;;
15889;SDS011;8043;49.388;12.128;2023-02-23T23:55:44;12.63;;;6.80;;
